Time;durP1;ratioP1;P1;durP2;ratioP2;P2;SDS_P1;SDS_P2;PMS_P1;PMS_P2;Temp;Humidity;BMP_temperature;BMP_pressure;BME280_temperature;BME280_humidity;BME280_pressure;Samples;Min_cycle;Max_cycle;Signal;HPM_P1;HPM_P2
2022/03/30 00:00:34;;;;;;;;;;;4.70;99.90;;;;;;5091938;27;20552;-73
2022/03/30 00:03:00;;;;;;;;;;;4.70;99.90;;;;;;5088998;27;19927;-73
2022/03/30 00:05:26;;;;;;;;;;;4.70;99.90;;;;;;5073777;27;19931;-73
2022/03/30 00:07:52;;;;;;;;;;;4.70;99.90;;;;;;5072041;27;19934;-72
2022/03/30 00:10:18;;;;;;;;;;;4.70;99.90;;;;;;5074432;27;19927;-72
2022/03/30 00:12:43;;;;;;;;;;;4.70;99.90;;;;;;5071276;27;19977;-73
2022/03/30 00:15:09;;;;;;;;;;;4.60;99.90;;;;;;5074448;27;20035;-73
2022/03/30 00:17:34;;;;;;;;;;;4.70;99.90;;;;;;5072778;27;19972;-73
2022/03/30 00:20:01;;;;;;;;;;;4.70;99.90;;;;;;5074621;27;19938;-73
2022/03/30 00:22:27;;;;;;;;;;;4.70;99.90;;;;;;5072048;27;19927;-73
2022/03/30 00:24:52;;;;;;;;;;;4.70;99.90;;;;;;5071057;28;20022;-73
2022/03/30 00:27:18;;;;;;;;;;;4.70;99.90;;;;;;5090686;27;19980;-73
2022/03/30 00:29:45;;;;;;;;;;;4.70;99.90;;;;;;5088738;27;20014;-73
2022/03/30 00:32:10;;;;;;;;;;;4.60;99.90;;;;;;5077843;27;19932;-73
2022/03/30 00:34:36;;;;;;;;;;;4.70;99.90;;;;;;5077033;27;19928;-73
2022/03/30 00:37:02;;;;;;;;;;;4.60;99.90;;;;;;5068425;27;19931;-73
2022/03/30 00:39:28;;;;;;;;;;;4.50;99.90;;;;;;5059334;27;19931;-73
2022/03/30 00:41:53;;;;;;;;;;;4.50;99.90;;;;;;5072013;27;19927;-72
2022/03/30 00:44:19;;;;;;;;;;;4.40;99.90;;;;;;5076147;27;19938;-73
2022/03/30 00:46:45;;;;;;;;;;;4.30;99.90;;;;;;5089376;27;20641;-73
2022/03/30 00:49:11;;;;;;;;;;;4.40;99.90;;;;;;5089450;27;19939;-72
2022/03/30 00:51:37;;;;;;;;;;;4.30;99.90;;;;;;5089817;27;19928;-72
2022/03/30 00:54:03;;;;;;;;;;;4.20;99.90;;;;;;5075190;27;20462;-72
2022/03/30 00:56:31;;;;;;;;;;;4.10;99.90;;;;;;5072647;28;19963;-72
2022/03/30 00:58:57;;;;;;;;;;;4.20;99.90;;;;;;5085756;27;20334;-73
2022/03/30 01:01:23;;;;;;;;;;;4.20;99.90;;;;;;5072657;27;19928;-72
2022/03/30 01:03:49;;;;;;;;;;;4.20;99.90;;;;;;5073481;27;19981;-72
2022/03/30 01:06:14;;;;;;;;;;;4.20;99.90;;;;;;5075356;27;19927;-72
2022/03/30 01:08:40;;;;;;;;;;;4.30;99.90;;;;;;5091176;27;19979;-72
2022/03/30 01:11:07;;;;;;;;;;;4.30;99.90;;;;;;5059080;28;20364;-73
2022/03/30 01:13:33;;;;;;;;;;;4.30;99.90;;;;;;5068154;27;19923;-73
2022/03/30 01:15:59;;;;;;;;;;;4.20;99.90;;;;;;5048979;27;19939;-73
2022/03/30 01:18:24;;;;;;;;;;;4.00;99.90;;;;;;5084574;27;19939;-72
2022/03/30 01:20:50;;;;;;;;;;;4.10;99.90;;;;;;5047504;27;20422;-72
2022/03/30 01:23:16;;;;;;;;;;;4.10;99.90;;;;;;5064369;27;19984;-72
2022/03/30 01:25:42;;;;;;;;;;;4.10;99.90;;;;;;5052050;27;19927;-73
2022/03/30 01:28:08;;;;;;;;;;;3.90;99.90;;;;;;5053212;28;20373;-72
2022/03/30 01:33:18;;;;;;;;;;;3.70;99.90;;;;;;5079507;27;20411;-72
2022/03/30 01:35:43;;;;;;;;;;;3.70;99.90;;;;;;5084128;27;19934;-73
2022/03/30 01:38:09;;;;;;;;;;;3.60;99.90;;;;;;5085183;27;20360;-73
2022/03/30 01:40:35;;;;;;;;;;;3.50;99.90;;;;;;5070923;27;20571;-73
2022/03/30 01:43:01;;;;;;;;;;;3.60;99.90;;;;;;5065311;27;19923;-73
2022/03/30 01:45:27;;;;;;;;;;;3.50;99.90;;;;;;5065576;27;19932;-72
2022/03/30 01:47:57;;;;;;;;;;;3.60;99.90;;;;;;5062229;27;19995;-72
2022/03/30 01:50:23;;;;;;;;;;;3.60;99.90;;;;;;5065554;28;20426;-72
2022/03/30 01:52:49;;;;;;;;;;;3.60;99.90;;;;;;5061031;28;19932;-73
2022/03/30 01:55:15;;;;;;;;;;;3.50;99.90;;;;;;5064951;28;19951;-72
2022/03/30 01:57:41;;;;;;;;;;;3.50;99.90;;;;;;5047594;28;19928;-73
2022/03/30 02:00:07;;;;;;;;;;;3.60;99.90;;;;;;5066064;28;20668;-73
2022/03/30 02:02:33;;;;;;;;;;;3.50;99.90;;;;;;5065315;28;19939;-72
2022/03/30 02:04:58;;;;;;;;;;;3.50;99.90;;;;;;5064920;28;20470;-73
2022/03/30 02:07:24;;;;;;;;;;;3.50;99.90;;;;;;5065978;28;19927;-72
2022/03/30 02:09:49;;;;;;;;;;;3.40;99.90;;;;;;5063675;28;19932;-72
2022/03/30 02:12:16;;;;;;;;;;;3.50;99.90;;;;;;5070615;28;19928;-72
2022/03/30 02:14:41;;;;;;;;;;;3.50;99.90;;;;;;5085768;28;20014;-72
2022/03/30 02:17:07;;;;;;;;;;;3.50;99.90;;;;;;5066832;28;19953;-72
2022/03/30 02:19:33;;;;;;;;;;;3.40;99.90;;;;;;5065548;28;20346;-73
2022/03/30 02:21:59;;;;;;;;;;;3.40;99.90;;;;;;5071268;28;19927;-72
2022/03/30 02:24:25;;;;;;;;;;;3.30;99.90;;;;;;5053097;28;19932;-72
2022/03/30 02:26:50;;;;;;;;;;;3.40;99.90;;;;;;5085368;28;19970;-72
2022/03/30 02:29:16;;;;;;;;;;;3.30;99.90;;;;;;5071183;28;19939;-72
2022/03/30 02:31:42;;;;;;;;;;;3.40;99.90;;;;;;5085704;28;20548;-73
2022/03/30 02:34:11;;;;;;;;;;;3.40;99.90;;;;;;5067962;28;19928;-72
2022/03/30 02:36:37;;;;;;;;;;;3.30;99.90;;;;;;5071380;28;19931;-73
2022/03/30 02:39:03;;;;;;;;;;;3.40;99.90;;;;;;5080948;27;19924;-73
2022/03/30 02:41:29;;;;;;;;;;;3.30;99.90;;;;;;5088751;28;19978;-73
2022/03/30 02:43:55;;;;;;;;;;;3.30;99.90;;;;;;5088363;27;20030;-73
2022/03/30 02:46:21;;;;;;;;;;;3.30;99.90;;;;;;5062486;28;19931;-72
2022/03/30 02:48:46;;;;;;;;;;;3.20;99.90;;;;;;5067469;28;19936;-73
2022/03/30 02:51:12;;;;;;;;;;;3.30;99.90;;;;;;5060973;28;20376;-73
2022/03/30 02:53:38;;;;;;;;;;;3.30;99.90;;;;;;5087235;28;19943;-73
2022/03/30 02:56:03;;;;;;;;;;;3.40;99.90;;;;;;5062272;28;20011;-73
2022/03/30 02:58:29;;;;;;;;;;;3.30;99.90;;;;;;5065467;28;19935;-73
2022/03/30 03:00:55;;;;;;;;;;;3.30;99.90;;;;;;5073917;27;20827;-73
2022/03/30 03:03:21;;;;;;;;;;;3.30;99.90;;;;;;5068202;28;23326;-72
2022/03/30 03:05:46;;;;;;;;;;;3.30;99.90;;;;;;5092696;27;19927;-73
2022/03/30 03:08:12;;;;;;;;;;;3.40;99.90;;;;;;5091655;27;19936;-73
2022/03/30 03:10:40;;;;;;;;;;;3.40;99.90;;;;;;5070414;27;19932;-72
2022/03/30 03:13:06;;;;;;;;;;;3.40;99.90;;;;;;5063107;27;19961;-73
2022/03/30 03:15:33;;;;;;;;;;;3.50;99.90;;;;;;5062884;27;19932;-73
2022/03/30 03:17:58;;;;;;;;;;;3.50;99.90;;;;;;5086561;27;20074;-73
2022/03/30 03:20:25;;;;;;;;;;;3.60;99.90;;;;;;5075711;27;20418;-73
2022/03/30 03:22:50;;;;;;;;;;;3.60;99.90;;;;;;5076665;27;20026;-73
2022/03/30 03:25:16;;;;;;;;;;;3.60;99.90;;;;;;5091592;27;19992;-73
2022/03/30 03:27:42;;;;;;;;;;;3.70;99.90;;;;;;5066100;27;19988;-72
2022/03/30 03:30:08;;;;;;;;;;;3.80;99.90;;;;;;5090169;27;19928;-73
2022/03/30 03:32:34;;;;;;;;;;;3.80;99.90;;;;;;5088060;27;20389;-73
2022/03/30 03:35:00;;;;;;;;;;;3.80;99.90;;;;;;5091745;27;19985;-72
2022/03/30 03:37:25;;;;;;;;;;;3.90;99.90;;;;;;5068605;28;19931;-73
2022/03/30 03:39:51;;;;;;;;;;;3.80;99.90;;;;;;5088345;27;19927;-73
2022/03/30 03:42:17;;;;;;;;;;;3.80;99.90;;;;;;5068510;27;19928;-73
2022/03/30 03:44:43;;;;;;;;;;;3.80;99.90;;;;;;5089275;27;20008;-73
2022/03/30 03:47:09;;;;;;;;;;;3.80;99.90;;;;;;5089382;27;19985;-73
2022/03/30 03:49:38;;;;;;;;;;;3.80;99.90;;;;;;5090705;27;20288;-73
2022/03/30 03:52:04;;;;;;;;;;;3.90;99.90;;;;;;5069124;28;20911;-72
2022/03/30 03:54:30;;;;;;;;;;;3.90;99.90;;;;;;5064394;27;19955;-72
2022/03/30 03:56:55;;;;;;;;;;;4.00;99.90;;;;;;5069770;27;20360;-72
2022/03/30 03:59:21;;;;;;;;;;;4.00;99.90;;;;;;5069837;27;19927;-73
2022/03/30 04:01:47;;;;;;;;;;;4.00;99.90;;;;;;5081874;27;20733;-72
2022/03/30 04:04:12;;;;;;;;;;;4.00;99.90;;;;;;5065554;27;19975;-72
2022/03/30 04:06:38;;;;;;;;;;;4.00;99.90;;;;;;5069309;27;19949;-72
2022/03/30 04:09:03;;;;;;;;;;;4.00;99.90;;;;;;5043430;28;19978;-72
2022/03/30 04:11:29;;;;;;;;;;;4.10;99.90;;;;;;5064827;27;19936;-72
2022/03/30 04:13:55;;;;;;;;;;;4.10;99.90;;;;;;5065338;27;19988;-72
2022/03/30 04:16:21;;;;;;;;;;;4.10;99.90;;;;;;5084044;27;19936;-72
2022/03/30 04:18:46;;;;;;;;;;;4.10;99.90;;;;;;5062041;28;20038;-73
2022/03/30 04:21:12;;;;;;;;;;;4.20;99.90;;;;;;5065269;27;19934;-72
2022/03/30 04:23:37;;;;;;;;;;;4.10;99.90;;;;;;5069476;27;20302;-72
2022/03/30 04:26:03;;;;;;;;;;;4.10;99.90;;;;;;5066722;27;19927;-72
2022/03/30 04:28:29;;;;;;;;;;;4.20;99.90;;;;;;5083807;27;20005;-72
2022/03/30 04:30:55;;;;;;;;;;;4.20;99.90;;;;;;5063949;27;19928;-72
2022/03/30 04:33:20;;;;;;;;;;;4.30;99.90;;;;;;5067028;27;19935;-72
2022/03/30 04:35:46;;;;;;;;;;;4.30;99.90;;;;;;5065223;27;19934;-73
2022/03/30 04:38:12;;;;;;;;;;;4.40;99.90;;;;;;5065797;27;19934;-72
2022/03/30 04:40:38;;;;;;;;;;;4.40;99.90;;;;;;5065088;27;19927;-72
2022/03/30 04:43:03;;;;;;;;;;;4.50;99.90;;;;;;5069172;27;20388;-72
2022/03/30 04:45:29;;;;;;;;;;;4.50;99.90;;;;;;5078105;27;19927;-72
2022/03/30 04:47:55;;;;;;;;;;;4.60;99.90;;;;;;5067009;27;19927;-73
2022/03/30 04:50:21;;;;;;;;;;;4.60;99.90;;;;;;5084034;27;20375;-72
2022/03/30 04:52:47;;;;;;;;;;;4.60;99.90;;;;;;5061096;27;19973;-73
2022/03/30 04:55:13;;;;;;;;;;;4.70;99.90;;;;;;5086148;27;19928;-73
2022/03/30 04:57:40;;;;;;;;;;;4.60;99.90;;;;;;5081181;27;19966;-73
2022/03/30 05:00:08;;;;;;;;;;;4.60;99.90;;;;;;5062543;27;19962;-72
2022/03/30 05:02:34;;;;;;;;;;;4.60;99.90;;;;;;5065717;27;19928;-74
2022/03/30 05:04:59;;;;;;;;;;;4.70;99.90;;;;;;5054200;28;19939;-72
2022/03/30 05:07:25;;;;;;;;;;;4.70;99.90;;;;;;5047322;27;19928;-73
2022/03/30 05:09:51;;;;;;;;;;;4.70;99.90;;;;;;5051975;27;20745;-73
2022/03/30 05:12:17;;;;;;;;;;;4.70;99.90;;;;;;5060206;27;20326;-72
2022/03/30 05:14:43;;;;;;;;;;;4.80;99.90;;;;;;5064819;27;19950;-73
2022/03/30 05:17:08;;;;;;;;;;;4.80;99.90;;;;;;5094342;27;19931;-72
2022/03/30 05:19:34;;;;;;;;;;;4.90;99.90;;;;;;5060127;28;20636;-72
2022/03/30 05:22:00;;;;;;;;;;;4.90;99.90;;;;;;5090738;27;19939;-72
2022/03/30 05:24:26;;;;;;;;;;;4.90;99.90;;;;;;5069107;27;19927;-72
2022/03/30 05:26:53;;;;;;;;;;;4.90;99.90;;;;;;5073938;28;21031;-72
2022/03/30 05:29:19;;;;;;;;;;;5.00;99.90;;;;;;5071297;28;19935;-73
2022/03/30 05:31:45;;;;;;;;;;;4.90;99.90;;;;;;5059547;28;19927;-72
2022/03/30 05:34:11;;;;;;;;;;;5.00;99.90;;;;;;5073101;27;20375;-73
2022/03/30 05:36:36;;;;;;;;;;;5.00;99.90;;;;;;5066858;27;19927;-72
2022/03/30 05:39:02;;;;;;;;;;;5.10;99.90;;;;;;5076868;27;20526;-72
2022/03/30 05:41:28;;;;;;;;;;;5.10;99.90;;;;;;5036932;28;19924;-73
2022/03/30 05:43:55;;;;;;;;;;;5.10;99.90;;;;;;5067057;28;20418;-72
2022/03/30 05:46:21;;;;;;;;;;;5.20;99.90;;;;;;5070661;28;20435;-72
2022/03/30 05:48:46;;;;;;;;;;;5.20;99.90;;;;;;5046616;28;19931;-72
2022/03/30 05:51:12;;;;;;;;;;;5.30;99.90;;;;;;5071050;28;20825;-71
2022/03/30 05:53:38;;;;;;;;;;;5.30;99.90;;;;;;5090929;27;19931;-73
2022/03/30 05:56:04;;;;;;;;;;;5.30;99.90;;;;;;5088363;28;19932;-73
2022/03/30 05:58:30;;;;;;;;;;;5.30;99.90;;;;;;5066842;28;20428;-73
2022/03/30 06:00:56;;;;;;;;;;;5.40;99.90;;;;;;5059321;28;19938;-73
2022/03/30 06:03:21;;;;;;;;;;;5.40;99.90;;;;;;5068338;28;20407;-73
2022/03/30 06:05:47;;;;;;;;;;;5.40;99.90;;;;;;5093060;28;19957;-73
2022/03/30 06:08:13;;;;;;;;;;;5.50;99.90;;;;;;5061272;28;19931;-73
2022/03/30 06:10:39;;;;;;;;;;;5.50;99.90;;;;;;5068864;28;19928;-72
2022/03/30 06:13:04;;;;;;;;;;;5.50;99.90;;;;;;5095590;28;19970;-72
2022/03/30 06:15:31;;;;;;;;;;;5.50;99.90;;;;;;5065983;28;19927;-73
2022/03/30 06:17:57;;;;;;;;;;;5.50;99.90;;;;;;5056542;28;20010;-72
2022/03/30 06:20:24;;;;;;;;;;;5.60;99.90;;;;;;5095450;28;19999;-72
2022/03/30 06:22:51;;;;;;;;;;;5.60;99.90;;;;;;5068225;28;19940;-72
2022/03/30 06:25:17;;;;;;;;;;;5.70;99.90;;;;;;5070336;28;19930;-73
2022/03/30 06:27:42;;;;;;;;;;;5.70;99.90;;;;;;5069489;28;20296;-73
2022/03/30 06:30:09;;;;;;;;;;;5.70;99.90;;;;;;5088531;28;19928;-72
2022/03/30 06:32:35;;;;;;;;;;;5.70;99.90;;;;;;5067221;28;19979;-73
2022/03/30 06:35:01;;;;;;;;;;;5.80;99.90;;;;;;5055156;27;20011;-73
2022/03/30 06:37:27;;;;;;;;;;;5.80;99.90;;;;;;5063428;27;20434;-73
2022/03/30 06:39:52;;;;;;;;;;;5.80;99.90;;;;;;5050144;27;20751;-73
2022/03/30 06:42:18;;;;;;;;;;;5.90;99.90;;;;;;5065936;27;20017;-73
2022/03/30 06:44:44;;;;;;;;;;;5.80;99.90;;;;;;5065843;27;20348;-72
2022/03/30 06:47:10;;;;;;;;;;;5.90;99.90;;;;;;5085739;27;19935;-72
2022/03/30 06:49:37;;;;;;;;;;;6.00;99.90;;;;;;5066381;27;19932;-72
2022/03/30 06:52:05;;;;;;;;;;;6.00;99.90;;;;;;5087611;27;20430;-72
2022/03/30 06:54:30;;;;;;;;;;;6.00;99.90;;;;;;5070961;28;19932;-73
2022/03/30 06:56:59;;;;;;;;;;;6.10;99.90;;;;;;5079475;27;19927;-73
2022/03/30 06:59:25;;;;;;;;;;;6.20;99.90;;;;;;5072310;27;19927;-72
2022/03/30 07:01:51;;;;;;;;;;;6.30;99.90;;;;;;5074433;27;19976;-73
2022/03/30 07:04:17;;;;;;;;;;;6.40;99.90;;;;;;5067849;27;19928;-72
2022/03/30 07:10:15;;;;;;;;;;;6.40;99.90;;;;;;5069701;27;19927;-73
2022/03/30 07:12:12;;;;;;;;;;;6.80;99.90;;;;;;5064553;27;19935;-72
2022/03/30 07:14:38;;;;;;;;;;;6.80;99.90;;;;;;5091674;27;19928;-73
2022/03/30 07:17:04;;;;;;;;;;;6.70;99.90;;;;;;5080422;27;19935;-73
2022/03/30 07:19:30;;;;;;;;;;;6.90;99.90;;;;;;5062912;28;19934;-73
2022/03/30 07:21:55;;;;;;;;;;;6.90;99.90;;;;;;5059264;28;20034;-73
2022/03/30 07:24:21;;;;;;;;;;;7.10;99.90;;;;;;5061471;27;19984;-73
2022/03/30 07:26:46;;;;;;;;;;;7.30;99.90;;;;;;5064163;27;19934;-73
2022/03/30 07:29:12;;;;;;;;;;;7.50;99.90;;;;;;5061103;27;19971;-73
2022/03/30 07:31:38;;;;;;;;;;;7.20;99.90;;;;;;5082570;27;19927;-73
2022/03/30 07:34:04;;;;;;;;;;;7.20;99.90;;;;;;5081619;27;20023;-73
2022/03/30 07:36:29;;;;;;;;;;;7.50;99.90;;;;;;5061911;28;20407;-73
2022/03/30 07:38:55;;;;;;;;;;;7.50;99.90;;;;;;5078745;27;19923;-73
2022/03/30 07:41:21;;;;;;;;;;;7.70;99.90;;;;;;5067868;27;19980;-73
2022/03/30 07:43:46;;;;;;;;;;;7.60;99.90;;;;;;5061260;27;20038;-73
2022/03/30 07:46:13;;;;;;;;;;;7.90;99.90;;;;;;5085967;27;20681;-73
2022/03/30 07:48:39;;;;;;;;;;;8.20;99.90;;;;;;5086083;27;20380;-73
2022/03/30 07:51:04;;;;;;;;;;;7.70;99.90;;;;;;5056906;27;20029;-73
2022/03/30 07:53:30;;;;;;;;;;;7.50;99.90;;;;;;5071031;27;19931;-73
2022/03/30 07:55:56;;;;;;;;;;;7.60;99.90;;;;;;5067483;27;19932;-73
2022/03/30 07:58:22;;;;;;;;;;;8.20;99.90;;;;;;5063079;27;19932;-73
2022/03/30 08:00:47;;;;;;;;;;;8.30;99.90;;;;;;5089211;27;19977;-73
2022/03/30 08:03:13;;;;;;;;;;;8.60;99.90;;;;;;5081339;27;19938;-73
2022/03/30 08:05:39;;;;;;;;;;;8.50;99.90;;;;;;5062741;27;19930;-73
2022/03/30 08:08:07;;;;;;;;;;;8.80;99.90;;;;;;5079985;27;19927;-73
2022/03/30 08:10:33;;;;;;;;;;;8.40;99.90;;;;;;5053215;27;20406;-73
2022/03/30 08:12:59;;;;;;;;;;;8.00;99.90;;;;;;5087562;27;20479;-73
2022/03/30 08:15:25;;;;;;;;;;;8.20;99.90;;;;;;5085139;27;19934;-73
2022/03/30 08:17:52;;;;;;;;;;;8.20;99.90;;;;;;5043781;27;19928;-73
2022/03/30 08:23:03;;;;;;;;;;;7.60;99.90;;;;;;5069215;27;19927;-73
2022/03/30 08:25:28;;;;;;;;;;;7.90;99.90;;;;;;5093683;27;19928;-73
2022/03/30 08:27:54;;;;;;;;;;;8.20;99.90;;;;;;5091413;27;19928;-73
2022/03/30 08:30:20;;;;;;;;;;;8.00;99.90;;;;;;5042852;27;19932;-73
2022/03/30 08:32:45;;;;;;;;;;;7.90;99.90;;;;;;5069111;27;20300;-73
2022/03/30 08:35:12;;;;;;;;;;;8.00;99.90;;;;;;5056219;27;20458;-73
2022/03/30 08:37:38;;;;;;;;;;;7.90;99.90;;;;;;5097113;27;19927;-73
2022/03/30 08:40:04;;;;;;;;;;;7.70;99.90;;;;;;5072618;27;19938;-73
2022/03/30 08:42:30;;;;;;;;;;;7.80;99.90;;;;;;5076652;27;20138;-73
2022/03/30 08:44:56;;;;;;;;;;;7.60;99.90;;;;;;5077490;27;19927;-73
2022/03/30 08:47:21;;;;;;;;;;;7.80;99.90;;;;;;5070856;27;19928;-73
2022/03/30 08:49:50;;;;;;;;;;;7.50;99.90;;;;;;5076063;27;20295;-73
2022/03/30 08:52:16;;;;;;;;;;;7.50;99.90;;;;;;5068958;27;19945;-73
2022/03/30 08:54:47;;;;;;;;;;;7.70;99.90;;;;;;5079932;27;19927;-72
2022/03/30 08:57:13;;;;;;;;;;;8.00;99.90;;;;;;5063799;28;19970;-73
2022/03/30 08:59:39;;;;;;;;;;;8.30;99.90;;;;;;5067233;27;20385;-73
2022/03/30 09:02:07;;;;;;;;;;;8.40;99.90;;;;;;5059492;27;19931;-73
2022/03/30 09:04:32;;;;;;;;;;;8.30;99.90;;;;;;5095467;27;20282;-72
2022/03/30 09:06:59;;;;;;;;;;;8.40;99.90;;;;;;5090648;27;20921;-74
2022/03/30 09:09:27;;;;;;;;;;;8.30;99.90;;;;;;5044839;28;19928;-73
2022/03/30 09:11:55;;;;;;;;;;;8.60;99.90;;;;;;5067605;28;19928;-73
2022/03/30 09:14:25;;;;;;;;;;;8.50;99.90;;;;;;5069046;28;20015;-73
2022/03/30 09:16:52;;;;;;;;;;;8.10;99.90;;;;;;5071218;27;21059;-73
2022/03/30 09:19:18;;;;;;;;;;;8.40;99.90;;;;;;5070492;27;19928;-73
2022/03/30 09:21:44;;;;;;;;;;;8.10;99.90;;;;;;5094908;27;20667;-73
2022/03/30 09:24:10;;;;;;;;;;;8.10;99.90;;;;;;5066326;27;20760;-73
2022/03/30 09:26:36;;;;;;;;;;;8.20;99.90;;;;;;5097604;27;20291;-72
2022/03/30 09:29:02;;;;;;;;;;;8.50;99.90;;;;;;5074362;27;19984;-73
2022/03/30 09:31:27;;;;;;;;;;;8.20;99.90;;;;;;5092759;27;19935;-73
2022/03/30 09:33:53;;;;;;;;;;;8.00;99.90;;;;;;5091299;27;20439;-72
2022/03/30 09:36:25;;;;;;;;;;;7.80;99.90;;;;;;5095328;27;20646;-73
2022/03/30 09:38:51;;;;;;;;;;;8.20;99.90;;;;;;5066299;28;19928;-73
2022/03/30 09:41:17;;;;;;;;;;;8.40;99.90;;;;;;5090483;27;19974;-73
2022/03/30 09:43:42;;;;;;;;;;;8.50;99.90;;;;;;5072553;27;20320;-73
2022/03/30 09:46:09;;;;;;;;;;;8.40;99.90;;;;;;5091262;27;19934;-73
2022/03/30 09:48:38;;;;;;;;;;;8.50;99.90;;;;;;5069682;28;20026;-73
2022/03/30 09:51:06;;;;;;;;;;;8.50;99.90;;;;;;5068136;28;19935;-74
2022/03/30 09:53:33;;;;;;;;;;;8.30;99.90;;;;;;5070810;27;19928;-73
2022/03/30 09:56:04;;;;;;;;;;;8.40;99.90;;;;;;5063201;28;19927;-73
2022/03/30 09:58:34;;;;;;;;;;;8.80;99.90;;;;;;5064761;28;20353;-73
2022/03/30 10:01:09;;;;;;;;;;;9.20;99.90;;;;;;5069898;28;20364;-72
2022/03/30 10:03:41;;;;;;;;;;;9.40;99.90;;;;;;5061862;28;20026;-72
2022/03/30 10:06:08;;;;;;;;;;;9.50;99.90;;;;;;5069105;28;19984;-73
2022/03/30 10:08:34;;;;;;;;;;;9.70;99.90;;;;;;5091297;27;20360;-73
2022/03/30 10:11:00;;;;;;;;;;;9.60;99.90;;;;;;5097423;27;20138;-73
2022/03/30 10:13:26;;;;;;;;;;;10.00;99.90;;;;;;5091335;27;20025;-73
2022/03/30 10:15:52;;;;;;;;;;;9.70;99.90;;;;;;5074988;27;19939;-74
2022/03/30 10:18:19;;;;;;;;;;;9.50;99.90;;;;;;5076417;27;19927;-73
2022/03/30 10:20:47;;;;;;;;;;;9.60;99.90;;;;;;5078122;27;19931;-73
2022/03/30 10:23:26;;;;;;;;;;;9.50;99.90;;;;;;5101890;27;19946;-73
2022/03/30 10:26:07;;;;;;;;;;;9.40;99.90;;;;;;5075794;27;19927;-73
2022/03/30 10:28:45;;;;;;;;;;;9.70;99.90;;;;;;5081721;27;19938;-74
2022/03/30 10:31:11;;;;;;;;;;;9.90;99.90;;;;;;5062102;27;19931;-74
2022/03/30 10:33:42;;;;;;;;;;;9.50;99.90;;;;;;5072951;27;19934;-73
2022/03/30 10:36:22;;;;;;;;;;;9.80;99.90;;;;;;5091778;27;19934;-73
2022/03/30 10:39:07;;;;;;;;;;;9.50;99.90;;;;;;5059195;27;19934;-73
2022/03/30 10:41:52;;;;;;;;;;;10.20;99.90;;;;;;5069252;28;19931;-73
2022/03/30 10:44:37;;;;;;;;;;;9.70;99.90;;;;;;5063582;27;19927;-73
2022/03/30 10:47:10;;;;;;;;;;;9.50;99.90;;;;;;5064515;27;20361;-73
2022/03/30 10:49:43;;;;;;;;;;;10.20;99.90;;;;;;5058537;27;20376;-73
2022/03/30 10:52:46;;;;;;;;;;;10.20;99.90;;;;;;5088038;27;19935;-73
2022/03/30 10:55:11;;;;;;;;;;;9.90;99.90;;;;;;5007941;28;19933;-73
2022/03/30 10:57:47;;;;;;;;;;;10.50;99.90;;;;;;5034004;27;20363;-73
2022/03/30 11:00:20;;;;;;;;;;;10.20;99.90;;;;;;5063093;27;19928;-74
2022/03/30 11:02:46;;;;;;;;;;;10.30;99.90;;;;;;5084454;27;19934;-73
2022/03/30 11:05:16;;;;;;;;;;;10.50;99.90;;;;;;5068340;27;20296;-73
2022/03/30 11:07:42;;;;;;;;;;;10.50;99.90;;;;;;5064552;27;20897;-73
2022/03/30 11:10:13;;;;;;;;;;;10.10;96.30;;;;;;5046932;27;19935;-73
2022/03/30 11:13:02;;;;;;;;;;;10.40;96.00;;;;;;5058712;27;19928;-73
2022/03/30 11:15:29;;;;;;;;;;;9.80;98.30;;;;;;5091398;27;19932;-73
2022/03/30 11:18:13;;;;;;;;;;;10.10;99.90;;;;;;5059387;27;19934;-73
2022/03/30 11:20:39;;;;;;;;;;;10.00;99.90;;;;;;5068732;28;20025;-73
2022/03/30 11:23:20;;;;;;;;;;;9.90;97.40;;;;;;5066549;27;19953;-74
2022/03/30 11:25:50;;;;;;;;;;;9.90;99.90;;;;;;5060146;27;19938;-74
2022/03/30 11:28:15;;;;;;;;;;;10.30;99.90;;;;;;5063706;28;20013;-73
2022/03/30 11:30:45;;;;;;;;;;;9.90;99.90;;;;;;5071514;27;20010;-73
2022/03/30 11:33:19;;;;;;;;;;;9.60;99.90;;;;;;5063827;27;19936;-74
2022/03/30 11:35:46;;;;;;;;;;;10.20;99.90;;;;;;5075281;27;19927;-73
2022/03/30 11:38:12;;;;;;;;;;;10.20;99.90;;;;;;5066110;27;19984;-73
2022/03/30 11:40:39;;;;;;;;;;;10.20;99.90;;;;;;5100433;27;19928;-74
2022/03/30 11:43:05;;;;;;;;;;;10.40;99.90;;;;;;5073601;27;20361;-73
2022/03/30 11:45:32;;;;;;;;;;;10.70;99.90;;;;;;5098106;27;20022;-73
2022/03/30 11:48:00;;;;;;;;;;;10.60;99.90;;;;;;5094647;27;19932;-73
2022/03/30 11:50:25;;;;;;;;;;;10.40;99.90;;;;;;5050194;27;20407;-73
2022/03/30 11:53:04;;;;;;;;;;;10.60;91.70;;;;;;5098421;27;19927;-73
2022/03/30 11:55:31;;;;;;;;;;;10.20;94.30;;;;;;5064851;27;20018;-72
2022/03/30 11:57:57;;;;;;;;;;;10.20;92.40;;;;;;5067920;27;19969;-73
2022/03/30 12:00:24;;;;;;;;;;;10.40;97.80;;;;;;5073896;27;19927;-73
2022/03/30 12:02:50;;;;;;;;;;;9.80;91.50;;;;;;5066268;27;20020;-73
2022/03/30 12:05:16;;;;;;;;;;;9.90;96.60;;;;;;5074056;27;20208;-73
2022/03/30 12:07:42;;;;;;;;;;;10.20;98.90;;;;;;5073499;27;19928;-73
2022/03/30 12:10:12;;;;;;;;;;;9.90;93.20;;;;;;5095365;27;19928;-73
2022/03/30 12:12:40;;;;;;;;;;;9.90;97.90;;;;;;5090859;27;19939;-73
2022/03/30 12:15:07;;;;;;;;;;;9.80;98.20;;;;;;5067817;27;19935;-72
2022/03/30 12:17:34;;;;;;;;;;;9.80;99.90;;;;;;5060378;28;20442;-73
2022/03/30 12:20:00;;;;;;;;;;;9.00;99.90;;;;;;5065618;27;19939;-73
2022/03/30 12:22:26;;;;;;;;;;;9.20;99.90;;;;;;5063050;27;19934;-73
2022/03/30 12:24:52;;;;;;;;;;;9.40;99.90;;;;;;5091359;27;19931;-73
2022/03/30 12:27:17;;;;;;;;;;;9.10;99.90;;;;;;5090849;27;19935;-73
2022/03/30 12:29:46;;;;;;;;;;;9.60;99.90;;;;;;5048826;28;19933;-73
2022/03/30 12:32:15;;;;;;;;;;;9.70;99.90;;;;;;5050915;28;19928;-73
2022/03/30 12:34:42;;;;;;;;;;;9.50;99.90;;;;;;5077173;27;20524;-72
2022/03/30 12:37:09;;;;;;;;;;;9.50;99.90;;;;;;5097329;27;20018;-74
2022/03/30 12:39:38;;;;;;;;;;;10.10;99.90;;;;;;5096179;27;19927;-73
2022/03/30 12:42:12;;;;;;;;;;;10.50;99.90;;;;;;5065019;27;19924;-73
2022/03/30 12:44:40;;;;;;;;;;;10.80;99.90;;;;;;5091118;27;19977;-73
2022/03/30 12:47:32;;;;;;;;;;;9.90;99.90;;;;;;5069199;27;19927;-73
2022/03/30 12:49:59;;;;;;;;;;;10.60;99.90;;;;;;5059564;27;19923;-73
2022/03/30 12:52:32;;;;;;;;;;;10.30;92.20;;;;;;5094701;27;19927;-73
2022/03/30 12:55:15;;;;;;;;;;;10.60;99.80;;;;;;5071804;27;19930;-73
2022/03/30 12:57:57;;;;;;;;;;;10.60;98.10;;;;;;5039276;27;19932;-73
2022/03/30 13:00:34;;;;;;;;;;;10.30;92.70;;;;;;5056584;27;19928;-73
2022/03/30 13:03:07;;;;;;;;;;;10.20;92.90;;;;;;5091862;27;20011;-74
2022/03/30 13:05:32;;;;;;;;;;;10.50;94.50;;;;;;5093727;27;20522;-74
2022/03/30 13:07:58;;;;;;;;;;;10.10;99.90;;;;;;5072753;27;19935;-73
2022/03/30 13:10:25;;;;;;;;;;;9.90;99.90;;;;;;5101451;27;19923;-73
2022/03/30 13:12:59;;;;;;;;;;;9.60;99.90;;;;;;5089607;27;19931;-73
2022/03/30 13:15:25;;;;;;;;;;;9.80;99.90;;;;;;5072898;27;19939;-73
2022/03/30 13:18:01;;;;;;;;;;;9.80;99.90;;;;;;5065590;27;19927;-73
2022/03/30 13:20:28;;;;;;;;;;;9.80;99.90;;;;;;5071383;27;20010;-73
2022/03/30 13:22:58;;;;;;;;;;;9.70;99.90;;;;;;5063751;28;19931;-73
2022/03/30 13:25:27;;;;;;;;;;;10.00;99.90;;;;;;5096160;27;20372;-74
2022/03/30 13:27:54;;;;;;;;;;;10.10;99.90;;;;;;5061885;27;20866;-73
2022/03/30 13:30:21;;;;;;;;;;;10.00;99.90;;;;;;5070908;27;19927;-73
2022/03/30 13:32:47;;;;;;;;;;;10.40;99.90;;;;;;5064870;28;19928;-74
2022/03/30 13:35:13;;;;;;;;;;;10.00;99.90;;;;;;5072119;28;19971;-73
2022/03/30 13:37:38;;;;;;;;;;;10.20;99.90;;;;;;5090482;27;20022;-72
2022/03/30 13:40:05;;;;;;;;;;;10.20;99.90;;;;;;5066167;27;19982;-72
2022/03/30 13:42:33;;;;;;;;;;;10.50;99.90;;;;;;5067639;28;19935;-73
2022/03/30 13:44:58;;;;;;;;;;;10.00;99.90;;;;;;5060314;27;19927;-73
2022/03/30 13:47:25;;;;;;;;;;;9.60;99.70;;;;;;5061702;27;19933;-74
2022/03/30 13:49:51;;;;;;;;;;;9.90;99.30;;;;;;5090820;27;19946;-73
2022/03/30 13:52:18;;;;;;;;;;;9.70;99.90;;;;;;5069272;27;20276;-74
2022/03/30 13:54:44;;;;;;;;;;;9.50;95.50;;;;;;5087569;27;19934;-73
2022/03/30 13:57:09;;;;;;;;;;;9.90;94.30;;;;;;5092874;27;19927;-73
2022/03/30 13:59:35;;;;;;;;;;;9.80;93.00;;;;;;5062974;28;19927;-74
2022/03/30 14:02:01;;;;;;;;;;;10.20;99.90;;;;;;5088070;28;19951;-73
2022/03/30 14:04:27;;;;;;;;;;;10.00;91.30;;;;;;5072395;28;19928;-73
2022/03/30 14:06:53;;;;;;;;;;;10.00;90.90;;;;;;5063157;28;19997;-73
2022/03/30 14:09:19;;;;;;;;;;;10.60;85.90;;;;;;5086658;28;19927;-73
2022/03/30 14:11:45;;;;;;;;;;;10.50;79.00;;;;;;5058295;28;19932;-74
2022/03/30 14:14:10;;;;;;;;;;;10.40;84.20;;;;;;5079679;28;20415;-74
2022/03/30 14:16:36;;;;;;;;;;;10.60;81.30;;;;;;5046944;28;19928;-73
2022/03/30 15:12:19;;;;;;;4.28;1.30;;;10.10;85.30;;;;;;5088112;27;20440;-72
2022/03/30 15:14:45;;;;;;;4.32;1.60;;;10.10;77.40;;;;;;5067140;28;20047;-72
2022/03/30 15:17:11;;;;;;;4.13;1.50;;;9.90;80.10;;;;;;5051674;28;20087;-73
2022/03/30 15:19:37;;;;;;;4.78;1.55;;;9.80;82.60;;;;;;5059889;28;20455;-73
2022/03/30 15:22:04;;;;;;;3.20;1.50;;;9.70;84.50;;;;;;5065454;28;20048;-73
2022/03/30 15:24:32;;;;;;;5.47;2.00;;;9.60;83.00;;;;;;5059246;28;20048;-72
2022/03/30 15:26:59;;;;;;;4.40;2.40;;;9.80;95.30;;;;;;5061437;28;20036;-72